Bonner, Texas
Current Conditions -  °F | °C
As of 1:53 AM on Tuesday 21 Oct 2014 (Local Time) from KMFE Reporting Station
Scattered Clouds Scattered Clouds  
Wind Chill: 73°   Ceiling: Unl
Heat Index: 73°   Visibility: 10mi
Dew Point: 70°   Wind: 5mph
Humidity: 90%   Direction: 350°N
Pressure: 29.94"   Gusts: NA
Location:  26.2031°N, 98.2299°W
Report Text: KMFE 210653Z AUTO 35004KT 10SM SCT055 23/21 A2994 RMK AO2 SLP137 T02280211
Loading
Personal Weather Stations






























Interactive Weather Map
Tropical Storm Tracking
New forecast layout! Learn more

10-Day Weather Forecast

Advertisements
Track Severe Weather on mobile